createdAt,value
2019-03-09T00:01:46.895Z,11.22
2019-03-09T00:04:17.047Z,10.23
2019-03-09T00:06:47.326Z,11.15
2019-03-09T00:09:20.537Z,11.43
2019-03-09T00:11:50.371Z,11.80
2019-03-09T00:14:20.821Z,13.00
2019-03-09T00:16:50.857Z,9.95
2019-03-09T00:19:21.317Z,8.00
2019-03-09T00:21:51.233Z,7.35
2019-03-09T00:24:36.824Z,13.45
2019-03-09T00:27:30.233Z,8.28
2019-03-09T00:30:26.709Z,12.93
2019-03-09T00:32:56.744Z,7.45
2019-03-09T00:35:26.780Z,10.15
2019-03-09T00:37:56.673Z,6.55
2019-03-09T00:40:26.714Z,5.70
2019-03-09T00:45:25.181Z,9.03
2019-03-09T00:47:54.644Z,8.55
2019-03-09T00:50:24.686Z,6.97
2019-03-09T00:55:23.112Z,7.35
2019-03-09T00:57:52.981Z,6.10
2019-03-09T01:00:22.829Z,6.30
2019-03-09T01:02:52.528Z,7.00
2019-03-09T01:05:21.812Z,6.60
2019-03-09T01:10:21.355Z,7.00
2019-03-09T01:12:51.015Z,7.80
2019-03-09T01:15:20.738Z,7.25
2019-03-09T01:17:50.697Z,6.83
2019-03-09T01:20:20.477Z,7.62
2019-03-09T01:22:49.899Z,5.53
2019-03-09T01:25:19.661Z,7.45
2019-03-09T01:27:49.160Z,5.28
2019-03-09T01:30:20.170Z,5.22
2019-03-09T01:32:49.838Z,7.65
2019-03-09T01:35:19.549Z,6.65
2019-03-09T01:37:49.164Z,7.35
2019-03-09T01:40:18.705Z,5.75
2019-03-09T01:42:48.446Z,7.25
2019-03-09T01:45:18.167Z,6.37
2019-03-09T01:47:47.842Z,7.37
2019-03-09T01:50:17.886Z,6.58
2019-03-09T01:52:47.586Z,5.35
2019-03-09T01:55:16.785Z,9.98
2019-03-09T01:57:46.560Z,5.95
2019-03-09T02:00:18.748Z,6.78
2019-03-09T02:02:49.212Z,5.42
2019-03-09T02:05:19.110Z,6.62
2019-03-09T02:07:49.731Z,5.55
2019-03-09T02:10:19.308Z,5.50
2019-03-09T02:12:48.850Z,6.90
2019-03-09T02:15:18.544Z,6.17
2019-03-09T02:17:48.322Z,6.70
2019-03-09T02:20:18.449Z,6.33
2019-03-09T02:22:48.510Z,5.50
2019-03-09T02:25:18.756Z,6.92
2019-03-09T02:27:49.107Z,5.30
2019-03-09T02:30:19.756Z,4.90
2019-03-09T02:32:49.528Z,5.08
2019-03-09T02:35:19.763Z,4.83
2019-03-09T02:37:49.756Z,5.60
2019-03-09T02:40:23.204Z,4.15
2019-03-09T02:42:53.627Z,3.77
2019-03-09T02:45:24.605Z,6.00
2019-03-09T02:50:24.176Z,4.65
2019-03-09T02:52:54.358Z,5.00
2019-03-09T02:55:24.472Z,3.40
2019-03-09T02:57:54.473Z,5.35
2019-03-09T03:00:24.663Z,4.33
2019-03-09T03:02:57.549Z,5.47
2019-03-09T03:05:27.719Z,5.55
2019-03-09T03:07:57.689Z,4.85
2019-03-09T03:12:56.574Z,3.83
2019-03-09T03:20:32.675Z,4.70
2019-03-09T03:23:03.934Z,5.80
2019-03-09T03:25:33.571Z,4.80
2019-03-09T03:30:32.586Z,6.17
2019-03-09T03:33:02.743Z,4.90
2019-03-09T03:35:32.860Z,6.55
2019-03-09T03:38:02.622Z,3.95
2019-03-09T03:40:32.431Z,6.20
2019-03-09T03:43:02.047Z,6.78
2019-03-09T03:45:32.112Z,5.03
2019-03-09T03:48:02.409Z,4.87
2019-03-09T03:50:32.518Z,5.08
2019-03-09T03:55:31.339Z,3.90
2019-03-09T03:58:01.722Z,3.70
2019-03-09T04:00:32.031Z,4.80
2019-03-09T04:03:02.509Z,3.65
2019-03-09T04:08:02.137Z,5.03
2019-03-09T04:10:47.058Z,5.35
2019-03-09T04:13:16.967Z,4.47
2019-03-09T04:15:46.516Z,5.20
2019-03-09T04:18:16.505Z,6.20
2019-03-09T04:20:46.714Z,5.45
2019-03-09T04:23:17.354Z,3.72
2019-03-09T04:25:47.703Z,5.53
2019-03-09T04:28:17.544Z,5.33
2019-03-09T04:30:47.809Z,4.97
2019-03-09T04:33:17.851Z,3.98
2019-03-09T04:35:48.031Z,5.67
2019-03-09T04:38:18.682Z,4.50
2019-03-09T04:40:48.703Z,4.45
2019-03-09T04:43:18.515Z,5.42
2019-03-09T04:45:49.455Z,4.55
2019-03-09T04:48:19.611Z,6.90
2019-03-09T04:53:18.638Z,3.45
2019-03-09T04:58:17.473Z,4.60
2019-03-09T05:03:16.335Z,4.12
2019-03-09T05:09:06.702Z,3.15
2019-03-09T05:14:14.493Z,4.83
2019-03-09T05:16:44.421Z,2.37
2019-03-09T05:19:14.335Z,3.20
2019-03-09T05:21:44.641Z,3.92
2019-03-09T05:24:14.557Z,3.20
2019-03-09T05:26:45.090Z,5.28
2019-03-09T05:29:15.545Z,2.60
2019-03-09T05:31:45.321Z,5.28
2019-03-09T05:34:15.312Z,4.00
2019-03-09T05:36:45.024Z,2.72
2019-03-09T05:39:14.593Z,3.27
2019-03-09T05:41:44.775Z,4.00
2019-03-09T05:44:15.105Z,3.47
2019-03-09T05:46:44.875Z,3.75
2019-03-09T05:49:14.677Z,4.85
2019-03-09T05:52:05.523Z,5.25
2019-03-09T05:54:35.313Z,4.40
2019-03-09T05:57:05.714Z,3.90
2019-03-09T05:59:35.931Z,3.77
2019-03-09T06:02:06.176Z,2.95
2019-03-09T06:04:36.751Z,3.22
2019-03-09T06:07:07.526Z,2.95
2019-03-09T06:12:08.174Z,7.03
2019-03-09T06:14:38.087Z,5.35
2019-03-09T06:17:08.537Z,4.72
2019-03-09T06:22:12.634Z,2.98
2019-03-09T06:24:42.465Z,3.67
2019-03-09T06:27:13.562Z,2.80
2019-03-09T06:33:28.050Z,3.65
2019-03-09T06:37:00.069Z,4.10
2019-03-09T06:39:50.103Z,3.87
2019-03-09T06:42:48.633Z,4.45
2019-03-09T06:45:19.918Z,5.22
2019-03-09T06:47:53.261Z,3.05
2019-03-09T06:50:26.330Z,1.92
2019-03-09T06:52:56.329Z,2.87
2019-03-09T06:55:26.157Z,3.08
2019-03-09T06:57:56.445Z,2.87
2019-03-09T07:00:39.013Z,3.22
2019-03-09T07:03:09.885Z,1.72
2019-03-09T07:05:39.677Z,2.67
2019-03-09T07:08:09.323Z,3.25
2019-03-09T07:10:38.814Z,2.15
2019-03-09T07:13:09.035Z,2.67
2019-03-09T07:15:44.919Z,2.70
2019-03-09T07:18:26.830Z,4.42
2019-03-09T07:20:58.316Z,2.17
2019-03-09T07:23:28.316Z,2.40
2019-03-09T07:25:58.329Z,3.08
2019-03-09T07:28:28.080Z,2.58
2019-03-09T07:30:57.814Z,2.12
2019-03-09T07:33:27.773Z,2.90
2019-03-09T07:35:57.874Z,2.05
2019-03-09T07:38:27.577Z,1.80
2019-03-09T07:43:26.612Z,2.45
2019-03-09T07:46:00.668Z,1.27
2019-03-09T07:48:30.535Z,1.95
2019-03-09T07:51:00.323Z,1.80
2019-03-09T07:53:35.456Z,2.10
2019-03-09T07:56:06.332Z,3.33
2019-03-09T07:58:37.145Z,2.87
2019-03-09T08:01:08.647Z,1.77
2019-03-09T08:06:08.301Z,2.10
2019-03-09T08:08:38.353Z,1.45
2019-03-09T08:11:07.859Z,2.42
2019-03-09T08:13:37.527Z,2.05
2019-03-09T08:16:07.924Z,1.90
2019-03-09T08:18:37.829Z,2.10
2019-03-09T08:21:08.649Z,2.50
2019-03-09T08:23:39.154Z,2.80
2019-03-09T08:26:08.901Z,2.65
2019-03-09T08:28:38.816Z,3.17
2019-03-09T08:31:08.530Z,1.47
2019-03-09T08:33:38.497Z,1.42
2019-03-09T08:36:08.097Z,1.95
2019-03-09T08:38:37.886Z,2.92
2019-03-09T08:41:07.808Z,1.67
2019-03-09T08:43:37.727Z,1.98
2019-03-09T08:46:07.952Z,1.98
2019-03-09T08:48:38.079Z,1.15
2019-03-09T08:51:07.970Z,0.80
2019-03-09T08:53:37.703Z,2.85
2019-03-09T08:56:08.519Z,2.15
2019-03-09T08:58:39.753Z,2.90
2019-03-09T09:06:08.862Z,3.27
2019-03-09T09:08:38.515Z,3.22
2019-03-09T09:11:08.317Z,1.72
2019-03-09T09:13:38.564Z,2.05
2019-03-09T09:21:09.823Z,2.27
2019-03-09T09:23:39.582Z,1.35
2019-03-09T09:28:38.301Z,1.82
2019-03-09T09:31:07.834Z,0.85
2019-03-09T09:33:37.492Z,3.27
2019-03-09T09:38:38.601Z,1.42
2019-03-09T09:43:37.514Z,3.25
2019-03-09T09:46:07.432Z,1.87
2019-03-09T09:48:37.314Z,1.37
2019-03-09T09:51:07.473Z,1.60
2019-03-09T09:56:06.563Z,2.08
2019-03-09T10:02:41.745Z,3.20
2019-03-09T10:05:11.867Z,2.77
2019-03-09T10:07:42.123Z,3.08
2019-03-09T10:10:14.911Z,1.42
2019-03-09T10:12:44.810Z,2.02
2019-03-09T10:15:23.056Z,2.75
2019-03-09T10:17:53.738Z,1.32
2019-03-09T10:20:26.314Z,1.90
2019-03-09T10:23:04.274Z,1.42
2019-03-09T10:25:31.721Z,1.50
2019-03-09T10:33:03.169Z,1.00
2019-03-09T10:36:11.619Z,2.62
2019-03-09T10:38:41.517Z,1.27
2019-03-09T10:41:11.284Z,2.98
2019-03-09T10:43:41.338Z,2.70
2019-03-09T10:46:12.274Z,0.85
2019-03-09T10:48:42.537Z,1.80
2019-03-09T10:53:42.828Z,2.58
2019-03-09T10:56:12.755Z,2.02
2019-03-09T10:58:43.145Z,1.90
2019-03-09T11:01:19.310Z,2.70
2019-03-09T11:03:50.463Z,1.45
2019-03-09T11:06:20.986Z,1.22
2019-03-09T11:08:52.153Z,1.12
2019-03-09T11:11:22.862Z,1.60
2019-03-09T11:13:52.805Z,1.57
2019-03-09T11:16:23.532Z,3.60
2019-03-09T11:21:25.321Z,2.05
2019-03-09T11:23:55.624Z,5.65
2019-03-09T11:26:26.144Z,14.73
2019-03-09T11:28:56.145Z,5.65
2019-03-09T11:31:38.590Z,8.28
2019-03-09T11:34:08.587Z,6.30
2019-03-09T11:36:39.033Z,3.80
2019-03-09T11:39:09.493Z,2.40
2019-03-09T11:44:08.943Z,2.47
2019-03-09T11:46:39.331Z,2.90
2019-03-09T11:49:09.595Z,4.10
2019-03-09T11:54:09.333Z,2.60
2019-03-09T11:56:39.167Z,3.45
2019-03-09T11:59:09.326Z,2.05
2019-03-09T12:01:43.898Z,1.82
2019-03-09T12:04:13.814Z,2.75
2019-03-09T12:06:43.674Z,3.05
2019-03-09T12:11:45.767Z,2.37
2019-03-09T12:14:16.481Z,2.55
2019-03-09T12:16:47.344Z,2.02
2019-03-09T12:19:17.328Z,2.17
2019-03-09T12:21:47.023Z,1.92
2019-03-09T12:24:19.836Z,1.35
2019-03-09T12:26:49.974Z,1.40
2019-03-09T12:29:19.738Z,2.30
2019-03-09T12:31:50.754Z,2.17
2019-03-09T12:36:50.558Z,1.98
2019-03-09T12:42:02.611Z,2.17
2019-03-09T12:47:18.944Z,2.00
2019-03-09T12:52:18.330Z,1.67
2019-03-09T12:54:48.662Z,4.47
2019-03-09T12:57:41.744Z,3.15
2019-03-09T13:00:16.611Z,2.37
2019-03-09T13:02:48.314Z,2.70
2019-03-09T13:05:18.947Z,4.15
2019-03-09T13:07:49.109Z,2.08
2019-03-09T13:10:19.834Z,3.17
2019-03-09T13:13:32.647Z,2.80
2019-03-09T13:16:02.861Z,2.55
2019-03-09T13:18:32.953Z,2.20
2019-03-09T13:21:03.069Z,2.30
2019-03-09T13:23:33.931Z,2.10
2019-03-09T13:26:04.124Z,1.95
2019-03-09T13:28:34.311Z,1.35
2019-03-09T13:31:04.919Z,2.67
2019-03-09T13:33:35.024Z,2.60
2019-03-09T13:36:08.164Z,1.82
2019-03-09T13:38:39.015Z,2.17
2019-03-09T13:41:09.590Z,2.60
2019-03-09T13:46:15.581Z,1.92
2019-03-09T13:48:45.886Z,2.20
2019-03-09T13:51:16.443Z,1.45
2019-03-09T13:53:46.888Z,2.98
2019-03-09T13:56:17.043Z,1.27
2019-03-09T13:58:49.598Z,2.98
2019-03-09T14:04:19.787Z,3.17
2019-03-09T14:06:50.334Z,1.87
2019-03-09T14:09:20.847Z,1.80
2019-03-09T14:12:28.303Z,2.62
2019-03-09T14:15:02.321Z,2.65
2019-03-09T14:17:32.600Z,2.70
2019-03-09T14:20:02.517Z,2.50
2019-03-09T14:22:32.812Z,3.05
2019-03-09T14:25:08.715Z,2.67
2019-03-09T14:27:38.838Z,2.12
2019-03-09T14:30:13.632Z,3.37
2019-03-09T14:35:12.482Z,2.47
2019-03-09T14:37:42.496Z,3.37
2019-03-09T14:40:13.878Z,3.10
2019-03-09T14:43:18.115Z,2.47
2019-03-09T14:45:51.792Z,3.77
2019-03-09T14:48:21.576Z,3.58
2019-03-09T14:53:22.044Z,3.27
2019-03-09T14:55:52.054Z,2.50
2019-03-09T14:58:22.574Z,3.65
2019-03-09T15:03:25.660Z,1.92
2019-03-09T15:08:25.318Z,1.72
2019-03-09T15:11:00.529Z,1.75
2019-03-09T15:13:30.911Z,1.65
2019-03-09T15:16:00.830Z,1.70
2019-03-09T15:18:31.102Z,2.17
2019-03-09T15:21:01.055Z,2.02
2019-03-09T15:23:31.133Z,1.65
2019-03-09T15:26:04.851Z,2.37
2019-03-09T15:28:35.464Z,1.32
2019-03-09T15:31:05.588Z,1.45
2019-03-09T15:36:06.545Z,2.35
2019-03-09T15:38:36.818Z,2.17
2019-03-09T15:41:10.542Z,1.77
2019-03-09T15:43:40.526Z,1.87
2019-03-09T15:58:24.096Z,2.60
2019-03-09T16:00:54.541Z,2.40
2019-03-09T16:03:26.327Z,2.20
2019-03-09T16:05:56.524Z,2.05
2019-03-09T16:08:27.309Z,2.08
2019-03-09T16:10:58.340Z,1.82
2019-03-09T16:13:28.595Z,2.62
2019-03-09T16:18:32.707Z,2.47
2019-03-09T16:21:04.484Z,1.98
2019-03-09T16:23:34.847Z,1.85
2019-03-09T16:26:04.964Z,2.47
2019-03-09T16:31:09.106Z,4.53
2019-03-09T16:33:39.142Z,1.87
2019-03-09T16:36:09.055Z,2.33
2019-03-09T16:38:39.957Z,1.20
2019-03-09T16:41:10.121Z,2.65
2019-03-09T16:43:40.832Z,1.90
2019-03-09T16:46:10.835Z,2.15
2019-03-09T16:48:43.438Z,1.75
2019-03-09T16:51:13.506Z,1.55
2019-03-09T16:53:43.472Z,2.37
2019-03-09T16:56:13.314Z,3.42
2019-03-09T16:58:43.470Z,1.85
2019-03-09T17:01:13.522Z,2.08
2019-03-09T17:03:43.490Z,1.45
2019-03-09T17:06:13.454Z,2.27
2019-03-09T17:08:43.937Z,1.60
2019-03-09T17:11:13.886Z,2.35
2019-03-09T17:13:43.845Z,2.15
2019-03-09T17:16:15.881Z,1.80
2019-03-09T17:18:45.845Z,2.15
2019-03-09T17:21:18.554Z,1.92
2019-03-09T17:23:51.511Z,2.10
2019-03-09T17:28:57.048Z,1.98
2019-03-09T17:31:27.121Z,2.12
2019-03-09T17:33:57.307Z,2.50
2019-03-09T17:36:27.501Z,1.60
2019-03-09T17:38:57.599Z,1.90
2019-03-09T17:43:57.481Z,2.27
2019-03-09T17:48:56.599Z,2.62
2019-03-09T17:53:55.898Z,3.22
2019-03-09T17:56:26.147Z,2.98
2019-03-09T17:58:56.915Z,2.58
2019-03-09T18:01:26.908Z,3.87
2019-03-09T18:03:57.308Z,4.25
2019-03-09T18:06:27.530Z,4.08
2019-03-09T18:11:25.918Z,4.72
2019-03-09T18:13:55.878Z,2.33
2019-03-09T18:16:25.671Z,3.10
2019-03-09T18:18:55.856Z,2.50
2019-03-09T18:21:25.890Z,5.03
2019-03-09T18:23:55.641Z,3.52
2019-03-09T18:26:38.737Z,4.17
2019-03-09T18:29:09.151Z,3.00
2019-03-09T18:31:39.873Z,2.77
2019-03-09T18:34:09.687Z,3.60
2019-03-09T18:39:09.383Z,2.62
2019-03-09T18:41:40.703Z,2.25
2019-03-09T18:44:11.926Z,2.75
2019-03-09T18:46:42.329Z,4.20
2019-03-09T18:49:12.065Z,3.55
2019-03-09T18:51:42.819Z,2.37
2019-03-09T18:54:13.307Z,3.90
2019-03-09T18:56:44.210Z,3.35
2019-03-09T18:59:15.415Z,3.40
2019-03-09T19:01:46.711Z,3.72
2019-03-09T19:04:17.530Z,3.15
2019-03-09T19:06:47.695Z,4.85
2019-03-09T19:09:18.882Z,3.80
2019-03-09T19:11:49.368Z,4.05
2019-03-09T19:14:20.327Z,2.70
2019-03-09T19:16:51.478Z,3.37
2019-03-09T19:19:21.519Z,4.70
2019-03-09T19:26:51.039Z,4.55
2019-03-09T19:29:42.819Z,3.83
2019-03-09T19:34:44.311Z,3.62
2019-03-09T19:37:16.905Z,6.00
2019-03-09T19:39:47.102Z,3.55
2019-03-09T19:42:17.832Z,3.65
2019-03-09T19:44:48.041Z,4.15
2019-03-09T19:47:58.979Z,4.00
2019-03-09T19:50:32.835Z,3.55
2019-03-09T19:53:11.137Z,4.95
2019-03-09T19:55:41.771Z,6.70
2019-03-09T19:58:11.869Z,3.15
2019-03-09T20:00:42.605Z,4.95
2019-03-09T20:05:43.315Z,3.98
2019-03-09T20:08:14.082Z,4.85
2019-03-09T20:10:45.318Z,4.05
2019-03-09T20:13:16.046Z,4.53
2019-03-09T20:15:46.540Z,5.78
2019-03-09T20:18:16.723Z,5.28
2019-03-09T20:20:48.317Z,4.87
2019-03-09T20:23:18.762Z,5.92
2019-03-09T20:25:49.238Z,4.92
2019-03-09T20:28:19.115Z,4.03
2019-03-09T20:30:49.095Z,4.55
2019-03-09T20:33:20.932Z,4.42
2019-03-09T20:36:40.959Z,8.55
2019-03-09T20:42:59.835Z,5.58
2019-03-09T20:46:10.878Z,6.70
2019-03-09T20:49:34.361Z,5.20
2019-03-09T20:53:09.104Z,6.35
2019-03-09T20:56:23.665Z,5.72
2019-03-09T21:03:24.606Z,5.28
2019-03-09T21:06:22.114Z,5.85
2019-03-09T21:09:35.365Z,4.70
2019-03-09T21:16:24.373Z,3.92
2019-03-09T21:19:51.145Z,3.65
2019-03-09T21:23:11.949Z,3.75
2019-03-09T21:26:33.166Z,4.70
2019-03-09T21:29:55.336Z,4.80
2019-03-09T21:33:07.602Z,3.77
2019-03-09T21:39:34.777Z,4.75
2019-03-09T21:42:59.074Z,3.87
2019-03-09T21:46:13.802Z,6.37
2019-03-09T21:49:42.482Z,4.45
2019-03-09T21:53:05.642Z,5.80
2019-03-09T21:56:27.339Z,5.55
2019-03-09T21:59:18.266Z,4.22
2019-03-09T22:02:05.982Z,5.33
2019-03-09T22:05:19.812Z,3.60
2019-03-09T22:08:21.639Z,4.50
2019-03-09T22:11:45.240Z,3.15
2019-03-09T22:14:28.292Z,3.65
2019-03-09T22:16:58.168Z,4.55
2019-03-09T22:19:28.500Z,4.50
2019-03-09T22:21:58.998Z,6.97
2019-03-09T22:26:17.387Z,4.33
2019-03-09T22:28:48.570Z,5.20
2019-03-09T22:31:19.381Z,6.60
2019-03-09T22:33:50.074Z,4.85
2019-03-09T22:36:20.339Z,5.08
2019-03-09T22:38:50.458Z,5.55
2019-03-09T22:41:20.846Z,3.35
2019-03-09T22:43:51.130Z,4.90
2019-03-09T22:46:21.802Z,4.35
2019-03-09T22:48:52.465Z,4.45
2019-03-09T22:51:23.844Z,4.72
2019-03-09T22:53:54.122Z,6.30
2019-03-09T22:56:24.145Z,4.08
2019-03-09T22:58:54.593Z,4.62
2019-03-09T23:01:25.042Z,6.60
2019-03-09T23:03:58.537Z,4.28
2019-03-09T23:06:28.987Z,4.25
2019-03-09T23:08:59.794Z,4.47
2019-03-09T23:11:29.900Z,3.83
2019-03-09T23:14:00.574Z,4.65
2019-03-09T23:16:31.092Z,4.92
2019-03-09T23:19:01.803Z,4.05
2019-03-09T23:21:32.484Z,5.37
2019-03-09T23:24:03.164Z,4.97
2019-03-09T23:26:33.787Z,4.33
2019-03-09T23:29:04.329Z,6.92
2019-03-09T23:31:34.140Z,4.25
2019-03-09T23:34:04.683Z,4.75
2019-03-09T23:36:35.311Z,4.95
2019-03-09T23:39:07.541Z,4.47
2019-03-09T23:41:38.170Z,5.08
2019-03-09T23:44:08.655Z,4.20
2019-03-09T23:46:38.856Z,5.45
2019-03-09T23:49:09.577Z,4.92
2019-03-09T23:54:09.157Z,4.80
2019-03-09T23:56:39.153Z,5.60
2019-03-09T23:59:09.431Z,4.03
